Snyder, Missouri
Current Conditions -  °F | °C
As of 7:55 PM on Saturday 22 Nov 2014 (Local Time) from KMHL Reporting Station
Clear Clear  
Wind Chill: 12°   Ceiling: Unl
Heat Index: 12°   Visibility: 10mi
Dew Point: 11°   Wind: 9mph
Humidity: 94%   Direction: 150°SSE
Pressure: 29.82"   Gusts: NA
Location:  39.5082°N, 93.2104°W
Report Text: KMHL 230155Z AUTO 15008KT 10SM CLR 12/11 A2982 RMK AO2
Loading
Personal Weather Stations






























Interactive Weather Map New forecast layout! Learn more

10-Day Weather Forecast

Advertisements
Track Severe Weather on mobile